sensor_id;sensor_type;location;lat;lon;timestamp;temperature;humidity
14093;DHT22;7123;49.468;10.992;2023-03-17T00:00:41;6.10;99.90
14093;DHT22;7123;49.468;10.992;2023-03-17T00:03:35;6.10;99.90
14093;DHT22;7123;49.468;10.992;2023-03-17T00:06:04;6.10;99.90
14093;DHT22;7123;49.468;10.992;2023-03-17T00:08:32;6.20;99.90
14093;DHT22;7123;49.468;10.992;2023-03-17T00:10:59;6.20;99.90
14093;DHT22;7123;49.468;10.992;2023-03-17T00:13:28;6.20;99.90
14093;DHT22;7123;49.468;10.992;2023-03-17T00:16:02;6.20;99.90
14093;DHT22;7123;49.468;10.992;2023-03-17T00:18:29;6.20;99.90
14093;DHT22;7123;49.468;10.992;2023-03-17T00:20:57;6.20;99.90
14093;DHT22;7123;49.468;10.992;2023-03-17T00:23:24;6.20;99.90
14093;DHT22;7123;49.468;10.992;2023-03-17T00:25:51;6.20;99.90
14093;DHT22;7123;49.468;10.992;2023-03-17T00:28:22;6.20;99.90
14093;DHT22;7123;49.468;10.992;2023-03-17T00:30:52;6.20;99.90
14093;DHT22;7123;49.468;10.992;2023-03-17T00:33:26;6.20;99.90
14093;DHT22;7123;49.468;10.992;2023-03-17T00:35:54;6.20;99.90
14093;DHT22;7123;49.468;10.992;2023-03-17T00:38:22;6.20;99.90
14093;DHT22;7123;49.468;10.992;2023-03-17T00:40:52;6.20;99.90
14093;DHT22;7123;49.468;10.992;2023-03-17T00:43:18;6.20;99.90
14093;DHT22;7123;49.468;10.992;2023-03-17T00:45:45;6.20;99.90
14093;DHT22;7123;49.468;10.992;2023-03-17T00:48:15;6.20;99.90
14093;DHT22;7123;49.468;10.992;2023-03-17T00:50:43;6.20;99.90
14093;DHT22;7123;49.468;10.992;2023-03-17T00:53:15;6.10;99.90
14093;DHT22;7123;49.468;10.992;2023-03-17T00:55:43;6.10;99.90
14093;DHT22;7123;49.468;10.992;2023-03-17T00:58:29;6.10;99.90
14093;DHT22;7123;49.468;10.992;2023-03-17T01:00:57;6.10;99.90
14093;DHT22;7123;49.468;10.992;2023-03-17T01:03:24;6.10;99.90
14093;DHT22;7123;49.468;10.992;2023-03-17T01:05:53;6.10;99.90
14093;DHT22;7123;49.468;10.992;2023-03-17T01:08:22;6.10;99.90
14093;DHT22;7123;49.468;10.992;2023-03-17T01:10:51;6.00;99.90
14093;DHT22;7123;49.468;10.992;2023-03-17T01:13:18;6.00;99.90
14093;DHT22;7123;49.468;10.992;2023-03-17T01:15:48;6.00;99.90
14093;DHT22;7123;49.468;10.992;2023-03-17T01:18:18;6.00;99.90
14093;DHT22;7123;49.468;10.992;2023-03-17T01:20:45;5.90;99.90
14093;DHT22;7123;49.468;10.992;2023-03-17T01:23:12;5.90;99.90
14093;DHT22;7123;49.468;10.992;2023-03-17T01:25:40;5.90;99.90
14093;DHT22;7123;49.468;10.992;2023-03-17T01:28:13;5.90;99.90
14093;DHT22;7123;49.468;10.992;2023-03-17T01:30:40;5.90;99.90
14093;DHT22;7123;49.468;10.992;2023-03-17T01:33:09;5.90;99.90
14093;DHT22;7123;49.468;10.992;2023-03-17T01:35:37;5.90;99.90
14093;DHT22;7123;49.468;10.992;2023-03-17T01:38:05;5.90;99.90
14093;DHT22;7123;49.468;10.992;2023-03-17T01:40:34;5.90;99.90
14093;DHT22;7123;49.468;10.992;2023-03-17T01:48:51;5.80;99.90
14093;DHT22;7123;49.468;10.992;2023-03-17T01:51:46;5.90;99.90
14093;DHT22;7123;49.468;10.992;2023-03-17T01:54:31;5.90;99.90
14093;DHT22;7123;49.468;10.992;2023-03-17T01:57:09;5.90;99.90
14093;DHT22;7123;49.468;10.992;2023-03-17T01:59:41;5.90;99.90
14093;DHT22;7123;49.468;10.992;2023-03-17T02:02:11;5.90;99.90
14093;DHT22;7123;49.468;10.992;2023-03-17T02:04:40;5.80;99.90
14093;DHT22;7123;49.468;10.992;2023-03-17T02:07:08;5.80;99.90
14093;DHT22;7123;49.468;10.992;2023-03-17T02:09:35;5.80;99.90
14093;DHT22;7123;49.468;10.992;2023-03-17T02:12:02;5.80;99.90
14093;DHT22;7123;49.468;10.992;2023-03-17T02:14:31;5.80;99.90
14093;DHT22;7123;49.468;10.992;2023-03-17T02:16:58;5.80;99.90
14093;DHT22;7123;49.468;10.992;2023-03-17T02:19:25;5.80;99.90
14093;DHT22;7123;49.468;10.992;2023-03-17T02:21:53;5.80;99.90
14093;DHT22;7123;49.468;10.992;2023-03-17T02:24:27;5.80;99.90
14093;DHT22;7123;49.468;10.992;2023-03-17T02:26:58;5.70;99.90
14093;DHT22;7123;49.468;10.992;2023-03-17T02:29:26;5.70;99.90
14093;DHT22;7123;49.468;10.992;2023-03-17T02:31:53;5.80;99.90
14093;DHT22;7123;49.468;10.992;2023-03-17T02:34:20;5.70;99.90
14093;DHT22;7123;49.468;10.992;2023-03-17T02:36:47;5.70;99.90
14093;DHT22;7123;49.468;10.992;2023-03-17T02:39:13;5.70;99.90
14093;DHT22;7123;49.468;10.992;2023-03-17T02:41:40;5.70;99.90
14093;DHT22;7123;49.468;10.992;2023-03-17T02:44:07;5.70;99.90
14093;DHT22;7123;49.468;10.992;2023-03-17T02:46:34;5.70;99.90
14093;DHT22;7123;49.468;10.992;2023-03-17T02:49:01;5.70;99.90
14093;DHT22;7123;49.468;10.992;2023-03-17T02:51:28;5.70;99.90
14093;DHT22;7123;49.468;10.992;2023-03-17T02:53:55;5.70;99.90
14093;DHT22;7123;49.468;10.992;2023-03-17T02:56:22;5.70;99.90
14093;DHT22;7123;49.468;10.992;2023-03-17T02:58:49;5.70;99.90
14093;DHT22;7123;49.468;10.992;2023-03-17T03:01:16;5.70;99.90
14093;DHT22;7123;49.468;10.992;2023-03-17T03:03:43;5.70;99.90
14093;DHT22;7123;49.468;10.992;2023-03-17T03:06:13;5.70;99.90
14093;DHT22;7123;49.468;10.992;2023-03-17T03:08:40;5.70;99.90
14093;DHT22;7123;49.468;10.992;2023-03-17T03:11:07;5.70;99.90
14093;DHT22;7123;49.468;10.992;2023-03-17T03:13:33;5.70;99.90
14093;DHT22;7123;49.468;10.992;2023-03-17T03:16:00;5.70;99.90
14093;DHT22;7123;49.468;10.992;2023-03-17T03:18:27;5.70;99.90
14093;DHT22;7123;49.468;10.992;2023-03-17T03:20:53;5.70;99.90
14093;DHT22;7123;49.468;10.992;2023-03-17T03:23:20;5.70;99.90
14093;DHT22;7123;49.468;10.992;2023-03-17T03:25:47;5.70;99.90
14093;DHT22;7123;49.468;10.992;2023-03-17T03:28:13;5.70;99.90
14093;DHT22;7123;49.468;10.992;2023-03-17T03:30:40;5.70;99.90
14093;DHT22;7123;49.468;10.992;2023-03-17T03:33:08;5.70;99.90
14093;DHT22;7123;49.468;10.992;2023-03-17T03:35:36;5.70;99.90
14093;DHT22;7123;49.468;10.992;2023-03-17T03:38:02;5.60;99.90
14093;DHT22;7123;49.468;10.992;2023-03-17T03:40:29;5.60;99.90
14093;DHT22;7123;49.468;10.992;2023-03-17T03:42:56;5.60;99.90
14093;DHT22;7123;49.468;10.992;2023-03-17T03:45:23;5.60;99.90
14093;DHT22;7123;49.468;10.992;2023-03-17T03:47:50;5.60;99.90
14093;DHT22;7123;49.468;10.992;2023-03-17T03:50:17;5.60;99.90
14093;DHT22;7123;49.468;10.992;2023-03-17T03:52:43;5.50;99.90
14093;DHT22;7123;49.468;10.992;2023-03-17T03:55:10;5.50;99.90
14093;DHT22;7123;49.468;10.992;2023-03-17T03:57:37;5.50;99.90
14093;DHT22;7123;49.468;10.992;2023-03-17T04:00:04;5.50;99.90
14093;DHT22;7123;49.468;10.992;2023-03-17T04:02:33;5.50;99.90
14093;DHT22;7123;49.468;10.992;2023-03-17T04:05:00;5.50;99.90
14093;DHT22;7123;49.468;10.992;2023-03-17T04:07:27;5.50;99.90
14093;DHT22;7123;49.468;10.992;2023-03-17T04:09:54;5.60;99.90
14093;DHT22;7123;49.468;10.992;2023-03-17T04:12:21;5.50;99.90
14093;DHT22;7123;49.468;10.992;2023-03-17T04:14:47;5.50;99.90
14093;DHT22;7123;49.468;10.992;2023-03-17T04:17:14;5.50;99.90
14093;DHT22;7123;49.468;10.992;2023-03-17T04:19:41;5.40;99.90
14093;DHT22;7123;49.468;10.992;2023-03-17T04:22:10;5.50;99.90
14093;DHT22;7123;49.468;10.992;2023-03-17T04:24:37;5.40;99.90
14093;DHT22;7123;49.468;10.992;2023-03-17T04:27:04;5.60;99.90
14093;DHT22;7123;49.468;10.992;2023-03-17T04:29:31;5.40;99.90
14093;DHT22;7123;49.468;10.992;2023-03-17T04:31:58;5.40;99.90
14093;DHT22;7123;49.468;10.992;2023-03-17T04:34:25;5.40;99.90
14093;DHT22;7123;49.468;10.992;2023-03-17T04:36:52;5.40;99.90
14093;DHT22;7123;49.468;10.992;2023-03-17T04:39:19;5.40;99.90
14093;DHT22;7123;49.468;10.992;2023-03-17T04:41:46;5.30;99.90
14093;DHT22;7123;49.468;10.992;2023-03-17T04:44:12;5.30;99.90
14093;DHT22;7123;49.468;10.992;2023-03-17T04:46:39;5.30;99.90
14093;DHT22;7123;49.468;10.992;2023-03-17T04:49:06;5.40;99.90
14093;DHT22;7123;49.468;10.992;2023-03-17T04:51:34;5.30;99.90
14093;DHT22;7123;49.468;10.992;2023-03-17T04:54:02;5.30;99.90
14093;DHT22;7123;49.468;10.992;2023-03-17T04:56:29;5.30;99.90
14093;DHT22;7123;49.468;10.992;2023-03-17T04:58:57;5.30;99.90
14093;DHT22;7123;49.468;10.992;2023-03-17T05:01:24;5.30;99.90
14093;DHT22;7123;49.468;10.992;2023-03-17T05:03:51;5.30;99.90
14093;DHT22;7123;49.468;10.992;2023-03-17T05:06:18;5.30;99.90
14093;DHT22;7123;49.468;10.992;2023-03-17T05:08:45;5.30;99.90
14093;DHT22;7123;49.468;10.992;2023-03-17T05:11:12;5.30;99.90
14093;DHT22;7123;49.468;10.992;2023-03-17T05:13:39;5.30;99.90
14093;DHT22;7123;49.468;10.992;2023-03-17T05:16:07;5.30;99.90
14093;DHT22;7123;49.468;10.992;2023-03-17T05:18:34;5.30;99.90
14093;DHT22;7123;49.468;10.992;2023-03-17T05:21:02;5.30;99.90
14093;DHT22;7123;49.468;10.992;2023-03-17T05:23:29;5.20;99.90
14093;DHT22;7123;49.468;10.992;2023-03-17T05:25:55;5.20;99.90
14093;DHT22;7123;49.468;10.992;2023-03-17T05:28:22;5.20;99.90
14093;DHT22;7123;49.468;10.992;2023-03-17T05:30:50;5.10;99.90
14093;DHT22;7123;49.468;10.992;2023-03-17T05:33:17;5.10;99.90
14093;DHT22;7123;49.468;10.992;2023-03-17T05:35:45;5.10;99.90
14093;DHT22;7123;49.468;10.992;2023-03-17T05:38:12;5.10;99.90
14093;DHT22;7123;49.468;10.992;2023-03-17T05:40:39;5.10;99.90
14093;DHT22;7123;49.468;10.992;2023-03-17T05:43:06;5.20;99.90
14093;DHT22;7123;49.468;10.992;2023-03-17T05:45:33;5.20;99.90
14093;DHT22;7123;49.468;10.992;2023-03-17T05:48:00;5.20;99.90
14093;DHT22;7123;49.468;10.992;2023-03-17T05:50:26;5.20;99.90
14093;DHT22;7123;49.468;10.992;2023-03-17T05:52:55;5.20;99.90
14093;DHT22;7123;49.468;10.992;2023-03-17T05:55:21;5.20;99.90
14093;DHT22;7123;49.468;10.992;2023-03-17T05:57:48;5.20;99.90
14093;DHT22;7123;49.468;10.992;2023-03-17T06:00:15;5.20;99.90
14093;DHT22;7123;49.468;10.992;2023-03-17T06:02:44;5.20;99.90
14093;DHT22;7123;49.468;10.992;2023-03-17T06:05:11;5.20;99.90
14093;DHT22;7123;49.468;10.992;2023-03-17T06:07:38;5.20;99.90
14093;DHT22;7123;49.468;10.992;2023-03-17T06:10:20;5.20;99.90
14093;DHT22;7123;49.468;10.992;2023-03-17T06:12:47;5.20;99.90
14093;DHT22;7123;49.468;10.992;2023-03-17T06:15:13;5.20;99.90
14093;DHT22;7123;49.468;10.992;2023-03-17T06:17:42;5.20;99.90
14093;DHT22;7123;49.468;10.992;2023-03-17T06:20:09;5.20;99.90
14093;DHT22;7123;49.468;10.992;2023-03-17T06:22:37;5.20;99.90
14093;DHT22;7123;49.468;10.992;2023-03-17T06:25:08;5.20;99.90
14093;DHT22;7123;49.468;10.992;2023-03-17T06:27:36;5.20;99.90
14093;DHT22;7123;49.468;10.992;2023-03-17T06:30:05;5.20;99.90
14093;DHT22;7123;49.468;10.992;2023-03-17T06:32:32;5.30;99.90
14093;DHT22;7123;49.468;10.992;2023-03-17T06:34:59;5.30;99.90
14093;DHT22;7123;49.468;10.992;2023-03-17T06:37:27;5.30;99.90
14093;DHT22;7123;49.468;10.992;2023-03-17T06:39:53;5.40;99.90
14093;DHT22;7123;49.468;10.992;2023-03-17T06:42:22;5.40;99.90
14093;DHT22;7123;49.468;10.992;2023-03-17T06:44:48;5.40;99.90
14093;DHT22;7123;49.468;10.992;2023-03-17T06:47:18;5.40;99.90
14093;DHT22;7123;49.468;10.992;2023-03-17T06:49:45;5.40;99.90
14093;DHT22;7123;49.468;10.992;2023-03-17T06:52:12;5.50;99.90
14093;DHT22;7123;49.468;10.992;2023-03-17T06:54:39;5.50;99.90
14093;DHT22;7123;49.468;10.992;2023-03-17T06:57:07;5.50;99.90
14093;DHT22;7123;49.468;10.992;2023-03-17T06:59:35;5.50;99.90
14093;DHT22;7123;49.468;10.992;2023-03-17T07:02:01;5.50;99.90
14093;DHT22;7123;49.468;10.992;2023-03-17T07:04:29;5.60;99.90
14093;DHT22;7123;49.468;10.992;2023-03-17T07:06:56;5.70;99.90
14093;DHT22;7123;49.468;10.992;2023-03-17T07:09:23;5.70;99.90
14093;DHT22;7123;49.468;10.992;2023-03-17T07:11:50;5.80;99.90
14093;DHT22;7123;49.468;10.992;2023-03-17T07:14:16;5.80;99.90
14093;DHT22;7123;49.468;10.992;2023-03-17T07:16:44;5.80;99.90
14093;DHT22;7123;49.468;10.992;2023-03-17T07:19:10;5.80;99.90
14093;DHT22;7123;49.468;10.992;2023-03-17T07:21:37;5.90;99.90
14093;DHT22;7123;49.468;10.992;2023-03-17T07:24:04;5.90;99.90
14093;DHT22;7123;49.468;10.992;2023-03-17T07:26:31;6.00;99.90
14093;DHT22;7123;49.468;10.992;2023-03-17T07:28:58;6.00;99.90
14093;DHT22;7123;49.468;10.992;2023-03-17T07:31:26;6.00;99.90
14093;DHT22;7123;49.468;10.992;2023-03-17T07:33:53;6.10;99.90
14093;DHT22;7123;49.468;10.992;2023-03-17T07:36:22;6.10;99.90
14093;DHT22;7123;49.468;10.992;2023-03-17T07:38:49;6.20;99.90
14093;DHT22;7123;49.468;10.992;2023-03-17T07:41:16;6.20;99.90
14093;DHT22;7123;49.468;10.992;2023-03-17T07:43:43;6.20;99.90
14093;DHT22;7123;49.468;10.992;2023-03-17T07:46:09;6.30;99.90
14093;DHT22;7123;49.468;10.992;2023-03-17T07:48:37;6.40;99.90
14093;DHT22;7123;49.468;10.992;2023-03-17T07:51:13;6.40;99.90
14093;DHT22;7123;49.468;10.992;2023-03-17T07:53:40;6.40;99.90
14093;DHT22;7123;49.468;10.992;2023-03-17T07:56:07;6.50;99.90
14093;DHT22;7123;49.468;10.992;2023-03-17T07:58:34;6.50;99.90
14093;DHT22;7123;49.468;10.992;2023-03-17T08:01:01;6.50;99.90
14093;DHT22;7123;49.468;10.992;2023-03-17T08:03:28;6.60;99.90
14093;DHT22;7123;49.468;10.992;2023-03-17T08:05:58;6.60;99.90
14093;DHT22;7123;49.468;10.992;2023-03-17T08:08:26;6.70;99.90
14093;DHT22;7123;49.468;10.992;2023-03-17T08:11:00;6.70;99.90
14093;DHT22;7123;49.468;10.992;2023-03-17T08:13:30;6.70;99.90
14093;DHT22;7123;49.468;10.992;2023-03-17T08:15:57;6.80;99.90
14093;DHT22;7123;49.468;10.992;2023-03-17T08:18:24;6.90;99.90
14093;DHT22;7123;49.468;10.992;2023-03-17T08:20:51;6.90;99.90
14093;DHT22;7123;49.468;10.992;2023-03-17T08:23:18;6.90;99.90
14093;DHT22;7123;49.468;10.992;2023-03-17T08:25:46;6.90;99.90
14093;DHT22;7123;49.468;10.992;2023-03-17T08:28:14;7.00;99.90
14093;DHT22;7123;49.468;10.992;2023-03-17T08:30:42;7.00;99.90
14093;DHT22;7123;49.468;10.992;2023-03-17T08:33:10;7.00;99.90
14093;DHT22;7123;49.468;10.992;2023-03-17T08:35:42;7.10;99.90
14093;DHT22;7123;49.468;10.992;2023-03-17T08:38:09;7.10;99.90
14093;DHT22;7123;49.468;10.992;2023-03-17T08:40:38;7.20;99.90
14093;DHT22;7123;49.468;10.992;2023-03-17T08:43:05;7.20;99.90
14093;DHT22;7123;49.468;10.992;2023-03-17T08:45:33;7.20;99.90
14093;DHT22;7123;49.468;10.992;2023-03-17T08:48:00;7.30;99.90
14093;DHT22;7123;49.468;10.992;2023-03-17T08:50:26;7.30;99.90
14093;DHT22;7123;49.468;10.992;2023-03-17T08:52:54;7.40;99.90
14093;DHT22;7123;49.468;10.992;2023-03-17T08:55:24;7.40;99.90
14093;DHT22;7123;49.468;10.992;2023-03-17T08:57:51;7.40;99.90
14093;DHT22;7123;49.468;10.992;2023-03-17T09:00:18;7.50;99.90
14093;DHT22;7123;49.468;10.992;2023-03-17T09:02:47;7.50;99.90
14093;DHT22;7123;49.468;10.992;2023-03-17T09:05:15;7.60;99.90
14093;DHT22;7123;49.468;10.992;2023-03-17T09:07:42;7.70;99.90
14093;DHT22;7123;49.468;10.992;2023-03-17T09:10:10;7.70;99.90
14093;DHT22;7123;49.468;10.992;2023-03-17T09:12:37;7.80;99.90
14093;DHT22;7123;49.468;10.992;2023-03-17T09:15:05;7.80;99.90
14093;DHT22;7123;49.468;10.992;2023-03-17T09:17:33;7.80;99.90
14093;DHT22;7123;49.468;10.992;2023-03-17T09:20:00;7.90;99.90
14093;DHT22;7123;49.468;10.992;2023-03-17T09:22:26;7.90;99.90
14093;DHT22;7123;49.468;10.992;2023-03-17T09:24:53;8.00;99.90
14093;DHT22;7123;49.468;10.992;2023-03-17T09:27:20;8.10;99.90
14093;DHT22;7123;49.468;10.992;2023-03-17T09:29:46;8.20;99.90
14093;DHT22;7123;49.468;10.992;2023-03-17T09:32:14;8.20;99.90
14093;DHT22;7123;49.468;10.992;2023-03-17T09:34:41;8.20;99.90
14093;DHT22;7123;49.468;10.992;2023-03-17T09:37:08;8.40;99.90
14093;DHT22;7123;49.468;10.992;2023-03-17T09:39:35;8.40;99.90
14093;DHT22;7123;49.468;10.992;2023-03-17T09:50:23;8.60;99.90
14093;DHT22;7123;49.468;10.992;2023-03-17T09:52:51;8.80;99.90
14093;DHT22;7123;49.468;10.992;2023-03-17T09:55:28;8.70;99.90
14093;DHT22;7123;49.468;10.992;2023-03-17T09:57:57;8.80;99.90
14093;DHT22;7123;49.468;10.992;2023-03-17T10:00:27;8.80;99.90
14093;DHT22;7123;49.468;10.992;2023-03-17T10:02:57;8.90;99.90
14093;DHT22;7123;49.468;10.992;2023-03-17T10:05:27;8.90;99.90
14093;DHT22;7123;49.468;10.992;2023-03-17T10:07:58;9.00;99.90
14093;DHT22;7123;49.468;10.992;2023-03-17T10:16:18;9.20;99.90
14093;DHT22;7123;49.468;10.992;2023-03-17T10:18:50;9.20;99.90
14093;DHT22;7123;49.468;10.992;2023-03-17T10:21:21;9.30;99.90
14093;DHT22;7123;49.468;10.992;2023-03-17T10:23:49;9.30;99.90
14093;DHT22;7123;49.468;10.992;2023-03-17T10:26:40;9.40;99.90
14093;DHT22;7123;49.468;10.992;2023-03-17T10:29:16;9.40;99.90
14093;DHT22;7123;49.468;10.992;2023-03-17T10:31:43;9.40;99.90
14093;DHT22;7123;49.468;10.992;2023-03-17T10:34:22;9.40;99.90
14093;DHT22;7123;49.468;10.992;2023-03-17T10:37:05;9.50;99.90
14093;DHT22;7123;49.468;10.992;2023-03-17T10:39:50;9.60;99.90
14093;DHT22;7123;49.468;10.992;2023-03-17T10:42:30;9.60;99.90
14093;DHT22;7123;49.468;10.992;2023-03-17T10:47:47;9.80;99.90
14093;DHT22;7123;49.468;10.992;2023-03-17T10:50:27;9.90;99.90
14093;DHT22;7123;49.468;10.992;2023-03-17T10:55:32;10.00;99.90
14093;DHT22;7123;49.468;10.992;2023-03-17T10:58:05;10.00;99.90
14093;DHT22;7123;49.468;10.992;2023-03-17T11:00:35;10.00;99.90
14093;DHT22;7123;49.468;10.992;2023-03-17T11:03:29;10.00;99.90
14093;DHT22;7123;49.468;10.992;2023-03-17T11:06:07;10.10;99.90
14093;DHT22;7123;49.468;10.992;2023-03-17T11:11:25;10.20;99.90
14093;DHT22;7123;49.468;10.992;2023-03-17T11:16:39;10.30;99.90
14093;DHT22;7123;49.468;10.992;2023-03-17T11:19:14;10.40;99.90
14093;DHT22;7123;49.468;10.992;2023-03-17T11:24:44;10.40;99.90
14093;DHT22;7123;49.468;10.992;2023-03-17T11:27:30;10.50;99.90
14093;DHT22;7123;49.468;10.992;2023-03-17T11:30:03;10.60;99.90
14093;DHT22;7123;49.468;10.992;2023-03-17T11:32:49;10.60;99.90
14093;DHT22;7123;49.468;10.992;2023-03-17T11:43:51;10.90;99.90
14093;DHT22;7123;49.468;10.992;2023-03-17T11:46:24;10.90;99.90
14093;DHT22;7123;49.468;10.992;2023-03-17T11:49:03;11.00;99.90
14093;DHT22;7123;49.468;10.992;2023-03-17T12:01:05;11.10;99.90
14093;DHT22;7123;49.468;10.992;2023-03-17T12:03:29;11.30;99.90
14093;DHT22;7123;49.468;10.992;2023-03-17T12:06:02;11.30;99.90
14093;DHT22;7123;49.468;10.992;2023-03-17T12:08:38;11.40;99.90
14093;DHT22;7123;49.468;10.992;2023-03-17T12:11:14;11.50;99.90
14093;DHT22;7123;49.468;10.992;2023-03-17T12:13:53;11.60;99.90
14093;DHT22;7123;49.468;10.992;2023-03-17T12:16:27;11.70;99.90
14093;DHT22;7123;49.468;10.992;2023-03-17T12:19:20;11.90;99.90
14093;DHT22;7123;49.468;10.992;2023-03-17T12:21:50;11.90;99.90
14093;DHT22;7123;49.468;10.992;2023-03-17T12:24:24;11.90;99.90
14093;DHT22;7123;49.468;10.992;2023-03-17T12:27:02;11.90;99.90
14093;DHT22;7123;49.468;10.992;2023-03-17T12:29:50;12.00;99.90
14093;DHT22;7123;49.468;10.992;2023-03-17T12:32:40;12.00;99.90
14093;DHT22;7123;49.468;10.992;2023-03-17T12:35:34;11.90;99.90
14093;DHT22;7123;49.468;10.992;2023-03-17T12:40:59;11.90;99.90
14093;DHT22;7123;49.468;10.992;2023-03-17T12:44:04;12.00;99.90
14093;DHT22;7123;49.468;10.992;2023-03-17T12:49:36;12.10;99.90
14093;DHT22;7123;49.468;10.992;2023-03-17T12:54:36;12.30;99.90
14093;DHT22;7123;49.468;10.992;2023-03-17T12:57:29;12.40;99.90
14093;DHT22;7123;49.468;10.992;2023-03-17T13:00:13;12.40;99.90
14093;DHT22;7123;49.468;10.992;2023-03-17T13:02:45;12.40;99.90
14093;DHT22;7123;49.468;10.992;2023-03-17T13:05:16;12.50;99.90
14093;DHT22;7123;49.468;10.992;2023-03-17T13:07:47;12.60;99.90
14093;DHT22;7123;49.468;10.992;2023-03-17T13:23:45;13.10;99.90
14093;DHT22;7123;49.468;10.992;2023-03-17T13:26:20;13.10;99.90
14093;DHT22;7123;49.468;10.992;2023-03-17T13:28:49;13.10;99.90
14093;DHT22;7123;49.468;10.992;2023-03-17T13:33:54;13.10;99.90
14093;DHT22;7123;49.468;10.992;2023-03-17T13:36:29;13.10;99.90
14093;DHT22;7123;49.468;10.992;2023-03-17T13:39:24;13.20;99.90
14093;DHT22;7123;49.468;10.992;2023-03-17T13:42:08;13.60;99.90
14093;DHT22;7123;49.468;10.992;2023-03-17T13:47:36;13.60;99.90
14093;DHT22;7123;49.468;10.992;2023-03-17T13:50:16;13.50;99.90
14093;DHT22;7123;49.468;10.992;2023-03-17T13:53:03;13.50;99.90
14093;DHT22;7123;49.468;10.992;2023-03-17T14:00:39;14.20;99.90
14093;DHT22;7123;49.468;10.992;2023-03-17T14:03:14;14.20;99.90
14093;DHT22;7123;49.468;10.992;2023-03-17T14:05:47;14.10;99.90
14093;DHT22;7123;49.468;10.992;2023-03-17T14:08:34;14.10;99.90
14093;DHT22;7123;49.468;10.992;2023-03-17T14:11:12;14.10;99.90
14093;DHT22;7123;49.468;10.992;2023-03-17T14:14:49;14.10;99.90
14093;DHT22;7123;49.468;10.992;2023-03-17T14:17:18;14.00;99.90
14093;DHT22;7123;49.468;10.992;2023-03-17T14:22:44;14.00;99.90
14093;DHT22;7123;49.468;10.992;2023-03-17T14:27:59;14.00;99.90
14093;DHT22;7123;49.468;10.992;2023-03-17T14:30:30;14.00;99.90
14093;DHT22;7123;49.468;10.992;2023-03-17T14:35:43;14.00;99.90
14093;DHT22;7123;49.468;10.992;2023-03-17T14:38:23;14.20;99.90
14093;DHT22;7123;49.468;10.992;2023-03-17T14:41:05;14.30;99.90
14093;DHT22;7123;49.468;10.992;2023-03-17T14:43:34;14.30;99.90
14093;DHT22;7123;49.468;10.992;2023-03-17T14:46:04;14.30;99.90
14093;DHT22;7123;49.468;10.992;2023-03-17T14:48:36;14.30;99.90
14093;DHT22;7123;49.468;10.992;2023-03-17T14:51:07;14.30;99.90
14093;DHT22;7123;49.468;10.992;2023-03-17T14:53:38;14.40;99.90
14093;DHT22;7123;49.468;10.992;2023-03-17T14:56:06;14.50;99.90
14093;DHT22;7123;49.468;10.992;2023-03-17T14:58:42;14.40;99.90
14093;DHT22;7123;49.468;10.992;2023-03-17T15:01:22;14.40;99.90
14093;DHT22;7123;49.468;10.992;2023-03-17T15:06:30;14.30;99.90
14093;DHT22;7123;49.468;10.992;2023-03-17T15:09:16;14.30;99.90
14093;DHT22;7123;49.468;10.992;2023-03-17T15:11:44;14.40;99.90
14093;DHT22;7123;49.468;10.992;2023-03-17T15:14:22;14.30;99.90
14093;DHT22;7123;49.468;10.992;2023-03-17T15:16:51;14.20;99.90
14093;DHT22;7123;49.468;10.992;2023-03-17T15:19:24;14.30;99.90
14093;DHT22;7123;49.468;10.992;2023-03-17T15:21:55;14.40;99.90
14093;DHT22;7123;49.468;10.992;2023-03-17T15:24:38;14.40;99.90
14093;DHT22;7123;49.468;10.992;2023-03-17T15:27:13;14.50;99.90
14093;DHT22;7123;49.468;10.992;2023-03-17T15:29:40;14.40;99.90
14093;DHT22;7123;49.468;10.992;2023-03-17T15:32:13;14.30;99.90
14093;DHT22;7123;49.468;10.992;2023-03-17T15:34:41;14.30;99.90
14093;DHT22;7123;49.468;10.992;2023-03-17T15:37:19;14.20;99.90
14093;DHT22;7123;49.468;10.992;2023-03-17T15:39:48;14.20;99.90
14093;DHT22;7123;49.468;10.992;2023-03-17T15:42:16;14.50;99.90
14093;DHT22;7123;49.468;10.992;2023-03-17T15:44:45;14.60;99.90
14093;DHT22;7123;49.468;10.992;2023-03-17T15:47:14;14.60;99.90
14093;DHT22;7123;49.468;10.992;2023-03-17T15:49:42;14.80;99.90
14093;DHT22;7123;49.468;10.992;2023-03-17T15:52:28;14.80;99.90
14093;DHT22;7123;49.468;10.992;2023-03-17T15:54:57;14.80;99.90
14093;DHT22;7123;49.468;10.992;2023-03-17T15:57:25;14.80;99.90
14093;DHT22;7123;49.468;10.992;2023-03-17T15:59:52;14.90;99.90
14093;DHT22;7123;49.468;10.992;2023-03-17T16:02:33;15.00;99.90
14093;DHT22;7123;49.468;10.992;2023-03-17T16:05:03;15.20;99.90
14093;DHT22;7123;49.468;10.992;2023-03-17T16:07:32;15.40;99.90
14093;DHT22;7123;49.468;10.992;2023-03-17T16:09:58;15.50;99.90
14093;DHT22;7123;49.468;10.992;2023-03-17T16:12:25;15.50;99.90
14093;DHT22;7123;49.468;10.992;2023-03-17T16:14:52;15.30;99.90
14093;DHT22;7123;49.468;10.992;2023-03-17T16:17:23;15.10;99.90
14093;DHT22;7123;49.468;10.992;2023-03-17T16:19:55;14.90;99.90
14093;DHT22;7123;49.468;10.992;2023-03-17T16:22:35;14.90;99.90
14093;DHT22;7123;49.468;10.992;2023-03-17T16:25:37;14.80;99.90
14093;DHT22;7123;49.468;10.992;2023-03-17T16:28:16;14.70;99.90
14093;DHT22;7123;49.468;10.992;2023-03-17T16:30:44;14.70;99.90
14093;DHT22;7123;49.468;10.992;2023-03-17T16:33:25;14.60;99.90
14093;DHT22;7123;49.468;10.992;2023-03-17T16:35:53;14.60;99.90
14093;DHT22;7123;49.468;10.992;2023-03-17T16:38:23;14.50;99.90
14093;DHT22;7123;49.468;10.992;2023-03-17T16:41:20;14.40;99.90
14093;DHT22;7123;49.468;10.992;2023-03-17T16:43:54;14.20;99.90
14093;DHT22;7123;49.468;10.992;2023-03-17T16:46:25;14.10;99.90
14093;DHT22;7123;49.468;10.992;2023-03-17T16:48:53;14.00;99.90
14093;DHT22;7123;49.468;10.992;2023-03-17T16:51:21;14.00;99.90
14093;DHT22;7123;49.468;10.992;2023-03-17T16:53:50;13.90;99.90
14093;DHT22;7123;49.468;10.992;2023-03-17T16:56:18;13.90;99.90
14093;DHT22;7123;49.468;10.992;2023-03-17T16:58:47;13.80;99.90
14093;DHT22;7123;49.468;10.992;2023-03-17T17:01:23;13.80;99.90
14093;DHT22;7123;49.468;10.992;2023-03-17T17:03:51;13.80;99.90
14093;DHT22;7123;49.468;10.992;2023-03-17T17:06:19;13.70;99.90
14093;DHT22;7123;49.468;10.992;2023-03-17T17:08:48;13.70;99.90
14093;DHT22;7123;49.468;10.992;2023-03-17T17:11:17;13.70;99.90
14093;DHT22;7123;49.468;10.992;2023-03-17T17:13:47;13.70;99.90
14093;DHT22;7123;49.468;10.992;2023-03-17T17:16:32;13.70;99.90
14093;DHT22;7123;49.468;10.992;2023-03-17T17:19:00;13.60;99.90
14093;DHT22;7123;49.468;10.992;2023-03-17T17:21:28;13.60;99.90
14093;DHT22;7123;49.468;10.992;2023-03-17T17:23:57;13.60;99.90
14093;DHT22;7123;49.468;10.992;2023-03-17T17:26:24;13.60;99.90
14093;DHT22;7123;49.468;10.992;2023-03-17T17:28:51;13.50;99.90
14093;DHT22;7123;49.468;10.992;2023-03-17T17:31:18;13.50;99.90
14093;DHT22;7123;49.468;10.992;2023-03-17T17:33:45;13.40;99.90
14093;DHT22;7123;49.468;10.992;2023-03-17T17:36:14;13.40;99.90